Gonzalo Peña

Recruteur en chef - Elche
20 Févr 2028
Dimanche
Processus

Personnalité

Adaptabilité (4) Ambition (15) Controverse (18) Loyauté (17) Pression (9) Professionnalisme (5) Sportivité (16) Tempérament (13)

Profil

Style d'entraînement Démocratique
Diplôme Continental C
Détermination 5
Gestion des joueurs 8
Motivation 4
Discipline 4
Satisfaction professionnelle
100%
Fatigue
0%
Rôle Recruteur en chef
Salaire 33.0K p/s
Contrat 14.03.2030

Performance

Comportement Bon
Efficacité de l'entraînement
51%
Développement des joueurs
60%
Prévention des blessures
65%
Mise en place tactique
60%

Événements récents

A participé à une réunion de recrutement maintenant
A participé à une réunion de recrutement maintenant
A participé à une réunion de recrutement 7j
A participé à une réunion de recrutement 7j
A participé à une réunion de recrutement 7j
A observé un match 7j
A participé à une réunion de recrutement 14j
A observé un match 14j

Suivi en cours

209
Joueur Club Statut Capacité Confiance Observé Dernière observation Dernier vote
Toni Fruk Udinese Rapport prêt 132 / 133 89% 1 31.01.2028 -
Javi Mier Zaragoza Rapport prêt 126 / 115 69% 1 10.01.2028 -
David Valencia Alianza Petrolera Négociation 128 / 133 40% 7 01.01.2028 -
Mao Hosoya Everton Négociation 134 / 135 90% 1 01.01.2028 -
Joe Johnson Barnet Actif 102 / 110 40% 1 01.01.2028 -
Caleb Yirenkyi Coventry City Actif 136 / 143 40% 4 31.12.2027 -
Josh Nichols Tranmere Rovers Actif 124 / 128 40% 1 31.12.2027 -
Mirza Ćatović VfB Stuttgart Actif 117 / 131 40% 2 30.12.2027 -
Ayden Heaven Luton Town Actif 148 / 151 40% 2 30.12.2027 -
Ronan Kpakio Cardiff City Actif 123 / 127 40% 1 30.12.2027 -
Celías Ingenthron Vélez Actif 122 / 124 40% 7 29.12.2027 -
Martín Jiménez Audax Italiano Actif 95 / 105 40% 2 29.12.2027 -
Avery Appiah Ajax Actif 123 / 119 40% 1 29.12.2027 -
Olaniyi Saheed Kwara United Actif 104 / 97 40% 4 27.12.2027 -
Emiliano Bértoli Patronato Actif 88 / 100 40% 5 27.12.2027 -
Kauã Moraes Cruzeiro Actif 133 / 128 40% 2 26.12.2027 -
Archie Gray Derby County Actif 150 / 152 40% 4 26.12.2027 -
Joel Ezra Enyimba Actif 102 / 96 40% 5 25.12.2027 -
Felipe Obradovich Ferro Carril Oeste Actif 106 / 118 40% 1 25.12.2027 -
Agustín Obregón River Plate Actif 119 / 120 40% 4 24.12.2027 -
Noahkai Banks Hamburger SV Actif 142 / 140 40% 1 24.12.2027 -
Jorge Salinas Racing Santander Actif 138 / 136 40% 1 24.12.2027 -
Ricky Atletico Venezuela Actif 90 / 103 40% 5 21.12.2027 -
Ángel Aguayo Sol de America Actif 88 / 102 40% 2 21.12.2027 -
Daniel Banjaqui Benfica Actif 127 / 129 40% 2 20.12.2027 -
Mauro Carrizo Atlético Tucumán Actif 109 / 108 40% 2 19.12.2027 -
Hervin Goyes Deportivo Pasto Actif 109 / 110 40% 9 19.12.2027 -
Andrija Bulatović RC Lens Actif 127 / 138 40% 1 19.12.2027 -
Alejandro Almaraz Nueva Chicago Actif 101 / 115 40% 3 17.12.2027 -
Mikkel Hope Haugesund Actif 97 / 101 40% 3 17.12.2027 -
Santiago Espíndola River Plate Actif 113 / 115 40% 2 16.12.2027 -
Diego Vargas San Marcos de Arica Actif 96 / 94 40% 4 14.12.2027 -
Izan Merino Málaga Actif 129 / 131 40% 1 14.12.2027 -
Trey Nyoni Rotherham United Actif 134 / 141 40% 3 13.12.2027 -
Ulises Giménez River Plate Actif 116 / 118 40% 3 12.12.2027 -
Tobías Andrada Virtus Entella Actif 116 / 128 40% 2 07.12.2027 -
Elkin Rivero Atletico Nacional Actif 98 / 114 40% 2 06.12.2027 -
Jofre Torrents Ajax Actif 124 / 135 40% 1 06.12.2027 -
Jorrel Hato Chelsea Actif 152 / 157 40% 1 06.12.2027 -
Nika Kvaratskhelia Tskhinvali Actif 102 / 97 40% 1 19.11.2027 -
Tyson Pearce St. Louis CITY SC Actif 97 / 105 40% 1 18.11.2027 -
Samuel Martín Millonarios Actif 111 / 110 40% 1 14.11.2027 -
Mads Bomholt Stabaek Actif 100 / 116 40% 4 11.11.2027 -
Tobias Moi Bodo/Glimt Actif 118 / 111 40% 1 11.11.2027 -
Zahir Ibarra Defensa y Justicia Actif 97 / 108 40% 1 09.11.2027 -
Santino Pasini Nea Salamis Actif 95 / 98 40% 1 09.11.2027 -
Christos Mouzakitis Hull City Actif 139 / 140 40% 1 08.11.2027 -
Sebastián Ramírez Jaguares Actif 112 / 115 40% 3 06.11.2027 -
Marlon Balanta Real Cartagena Actif 99 / 94 40% 1 06.11.2027 -
Luis Otávio Colorado Rapids Actif 109 / 115 40% 3 05.11.2027 -
Bahia Criciuma Actif 120 / 125 40% 1 04.11.2027 -
Héctor Fort Real Sociedad Actif 143 / 140 40% 2 02.11.2027 -
Ignacio Fernández Boston River Actif 85 / 104 40% 3 25.10.2027 -
Matteo Pérez Vinlöf Dinamo Zagreb Actif 127 / 124 40% 1 25.10.2027 -
Dmitry Pestryakov Dinamo Moscow Actif 116 / 129 40% 1 24.10.2027 -
Estanislao López Colón Actif 91 / 101 40% 1 19.10.2027 -
Nazareno Roselli Defensa y Justicia Actif 106 / 121 40% 1 19.10.2027 -
Esteban de Lima Tacuarembo Actif 85 / 98 40% 1 11.10.2027 -
Germán Barbas Penarol Actif 106 / 113 40% 1 11.10.2027 -
José Correa Deportivo Tachira Actif 97 / 99 40% 3 10.10.2027 -
Juan Morán Godoy Cruz Actif 110 / 112 40% 1 10.10.2027 -
Harbor Miller LA Galaxy Actif 88 / 107 40% 1 09.10.2027 -
Adam Aznou Everton Actif 128 / 129 40% 1 09.10.2027 -
Matías Magdaleno Estudiantes Actif 99 / 111 40% 1 08.10.2027 -
Pedro Soma San Diego Football Club Actif 102 / 107 40% 1 08.10.2027 -
Giovanni Leoni Bradford City Actif 145 / 144 40% 2 06.10.2027 -
Marc Bernal Real Sociedad Actif 142 / 157 40% 1 05.10.2027 -
Alejo Fernández Temperley Actif 101 / 105 40% 1 08.09.2027 -
Lucas Silva River Plate Actif 92 / 109 40% 1 23.08.2027 -
Mariano Gerez Lanús Actif 99 / 111 40% 1 23.08.2027 -
Eddy Kouadio Crotone Actif 102 / 112 40% 1 18.08.2027 -
Mamadou Sarr Chelsea Actif 136 / 147 40% 1 18.08.2027 -
Adam Bakoune Ospitaletto Actif 96 / 109 40% 1 12.08.2027 -
Felipe Faúndez O'Higgins Actif 93 / 108 40% 1 12.08.2027 -
Kazunari Kita Real Sociedad Actif 96 / 106 40% 1 05.07.2027 -
Daniel Kelly Oxford United Actif 104 / 122 40% 1 15.06.2027 -
Davide Bartesaghi AC Milan Actif 138 / 133 40% 1 15.06.2027 -
Pedro de la Vega FC Dallas Actif 133 / 134 66% 1 01.06.2027 -
Dion Beljo Standard Liege Négociation 131 / 132 66% 1 01.06.2027 -
Martín Almeida Montevideo City Torque Actif 97 / 104 40% 1 01.06.2027 -
Sascha Britschgi Padova Actif 120 / 129 40% 1 31.05.2027 -
Johan Manzambi Newcastle United Actif 144 / 143 40% 1 31.05.2027 -
Omar El Hilali Espanyol Actif 151 / 147 40% 9 30.05.2027 -
Yusi Alavés Actif 120 / 138 40% 3 30.05.2027 -
Isaac Price West Bromwich Albion Actif 133 / 126 40% 1 30.05.2027 -
Mats Wieffer Brighton Actif 150 / 149 40% 4 27.05.2027 -
Urko González Espanyol Actif 132 / 132 40% 5 27.05.2027 -
Max Bird Birmingham Actif 128 / 134 40% 5 27.05.2027 -
Amine Adli Bournemouth Actif 141 / 148 40% 1 27.05.2027 -
Welington Southampton Actif 135 / 134 40% 2 25.05.2027 -
Marvin Park Las Palmas Actif 139 / 132 40% 3 25.05.2027 -
Andrés Martín Racing Santander Actif 129 / 132 40% 3 23.05.2027 -
Arnau Martínez Valencia Actif 142 / 142 40% 4 21.05.2027 -
Ethan Galbraith Swansea City Actif 132 / 135 40% 4 21.05.2027 -
Noah Sadiki Sunderland Actif 137 / 148 40% 2 20.05.2027 -
Juanlu Bournemouth Actif 151 / 146 40% 2 20.05.2027 -
Aimar Osasuna Actif 152 / 144 40% 2 18.05.2027 -
Aitor Paredes Athletic Bilbao Actif 145 / 155 40% 3 14.05.2027 -
Harry Clarke Preston Actif 130 / 132 40% 1 14.05.2027 -
Tyrhys Dolan Espanyol Actif 148 / 144 40% 4 13.05.2027 -
Luke McNally Bristol City Actif 139 / 134 40% 3 13.05.2027 -
Nathan Collins Brentford Actif 145 / 149 40% 2 13.05.2027 -
Antony Betis Actif 144 / 153 40% 1 13.05.2027 -
Kevin Vazquez Cruz Azul Actif 143 / 133 40% 9 10.05.2027 -
Couhaib Driouech Celta Actif 127 / 137 40% 1 10.05.2027 -
Kristoffer Lund Birmingham Actif 128 / 124 40% 1 07.05.2027 -
Ryan Sessegnon Fulham Actif 139 / 148 40% 7 06.05.2027 -
Jesús Vázquez Valencia Actif 148 / 138 40% 1 06.05.2027 -
Yehor Yarmoliuk Brentford Actif 145 / 154 40% 3 05.05.2027 -
Pablo Ramón Racing Santander Actif 144 / 131 40% 1 03.05.2027 -
Ilaix Moriba Celta Actif 154 / 155 40% 5 02.05.2027 -
Adrià Altimira Deportivo La Coruña Actif 127 / 135 40% 9 30.04.2027 -
Erick Sánchez OGC Nice Actif 148 / 138 40% 3 29.04.2027 -
Arnau Puigmal Mallorca Actif 122 / 128 40% 1 28.04.2027 -
Fran García Betis Actif 141 / 146 40% 6 24.04.2027 -
Michael Kayode Brentford Actif 151 / 153 40% 1 23.04.2027 -
Daijiro Chirino Almería Actif 125 / 138 40% 3 22.04.2027 -
Femi Seriki Sheffield United Actif 132 / 129 40% 1 22.04.2027 -
Derry Murkin Derby County Actif 131 / 127 40% 2 21.04.2027 -
Álex Lizancos Burgos Actif 136 / 126 40% 1 20.04.2027 -
Florentino Luís Ipswich Town Actif 140 / 136 40% 2 19.04.2027 -
Pol Lozano Espanyol Actif 145 / 143 40% 6 13.04.2027 -
Javi Rodríguez Celta Actif 150 / 155 40% 1 13.04.2027 -
Flavien-Enzo Boyomo Osasuna Actif 152 / 154 40% 2 12.04.2027 -
Tom Fellows Southampton Actif 141 / 131 40% 2 10.04.2027 -
Quinten Timber Crystal Palace Actif 153 / 154 40% 2 08.04.2027 -
André Wolverhampton Actif 150 / 143 40% 1 08.04.2027 -
Ozziel Herrera Tigres Actif 131 / 123 40% 5 03.04.2027 -
Milan van Ewijk Mansfield Town Actif 123 / 133 40% 4 02.04.2027 -
Nicolas Madsen Queens Park Rangers Actif 126 / 125 40% 1 01.04.2027 -
Adam Wharton Crystal Palace Actif 143 / 158 40% 1 31.03.2027 -
David Ozoh Derby County Actif 122 / 129 40% 1 28.03.2027 -
Jake O'Brien Everton Actif 149 / 149 40% 1 28.03.2027 -
Jarrad Branthwaite Everton Actif 144 / 154 40% 3 27.03.2027 -
Nuno Tavares Lazio Actif 151 / 148 40% 2 27.03.2027 -
Javi Guerra Valencia Actif 149 / 147 40% 3 25.03.2027 Observer
Lucas Høgsberg RC Strasbourg Actif 133 / 139 40% 1 25.03.2027 -
Lucas Da Cunha Como Actif 136 / 143 40% 1 23.03.2027 -
Ronwen Phiri Platinum Stars Actif 89 / 108 40% 1 22.03.2027 -
Leandro Martins Benfica Actif 100 / 99 40% 1 21.03.2027 -
Keagan Tau Ajax Cape Town Actif 82 / 103 40% 1 21.03.2027 -
Antonio Blanco Alavés Actif 144 / 146 40% 1 18.03.2027 -
Sofiane Diop OGC Nice Actif 136 / 139 40% 1 16.03.2027 -
Carlos Vicente Birmingham Actif 145 / 142 40% 4 15.03.2027 -
Giacomo Raspadori Atalanta Actif 145 / 144 40% 1 15.03.2027 -
Toby Collyer West Bromwich Albion Actif 126 / 135 40% 2 11.03.2027 -
Adam Randell Bristol City Actif 125 / 130 40% 1 24.02.2027 -
Lorenzo Amatucci Deportivo La Coruña Actif 122 / 139 40% 2 16.02.2027 -
Álex Centelles Levski Actif 142 / 129 40% 1 15.02.2027 -
Dara O'Shea Ipswich Town Actif 145 / 132 40% 1 12.02.2027 -
Jacques Ekomié Wrexham Actif 125 / 131 40% 1 11.02.2027 -
Alejandro Francés Girona Actif 135 / 136 40% 1 07.02.2027 -
Adrien Truffert Bournemouth Actif 158 / 148 40% 1 07.02.2027 -
Malick Thiaw West Ham United Actif 148 / 156 40% 1 06.02.2027 -
Iván Martín Racing Santander Actif 142 / 139 40% 1 04.02.2027 -
Dani Vivian Athletic Bilbao Actif 142 / 147 40% 1 02.02.2027 -
Thalys Almería Actif 125 / 126 40% 4 22.01.2027 -
Thiago Perruisset Boca Juniors Actif 94 / 95 40% 1 01.01.2027 -
Ferdi Kadıoğlu Brighton Actif 142 / 151 40% 1 31.12.2026 -
Aaron Hickey Brentford Actif 151 / 149 40% 1 31.12.2026 -
Efraín Álvarez Guadalajara Actif 140 / 133 40% 1 29.12.2026 -
Jonás Luna Santa Clara Actif 124 / 121 40% 2 28.12.2026 -
Richard Ledezma Guadalajara Actif 142 / 138 40% 2 28.12.2026 -
Vivaldo Semedo Watford Actif 109 / 126 40% 2 28.12.2026 -
Oihan Sancet Athletic Bilbao Actif 155 / 154 40% 7 26.12.2026 -
Hugo Duro Valencia Actif 144 / 138 40% 2 25.12.2026 -
Pablo Torre Mallorca Actif 135 / 147 40% 2 25.12.2026 -
Georginio Rutter Brighton Actif 140 / 143 40% 1 16.12.2026 -
Brian Rodríguez Club America Actif 116 / 126 40% 1 15.12.2026 -
Bryan González Guadalajara Actif 126 / 134 40% 1 14.12.2026 -
Robert Navarro Athletic Bilbao Actif 128 / 141 40% 1 11.12.2026 -
Eric Ramires Bragantino Actif 119 / 128 40% 1 10.12.2026 Plus d'infos
Yan Diomandé Real Madrid Actif 160 / 152 40% 2 09.12.2026 -
Marcelo Allende Mamelodi Sundowns Actif 146 / 131 40% 1 07.12.2026 -
Jonathan Dubasin Osasuna Actif 140 / 139 40% 1 07.12.2026 -
Brian Gutiérrez Guadalajara Actif 115 / 129 40% 2 06.12.2026 -
Karim Adeyemi Barcelona Actif 162 / 158 40% 1 06.12.2026 -
Tiago Palacios Estudiantes Actif 119 / 130 40% 1 02.12.2026 -
Leo Castledine Middlesbrough Actif 126 / 134 40% 2 30.11.2026 -
Rémi Lemoine Chamois Niortais Actif 161 / 162 40% 4 27.11.2026 -
Nicolás Castro Toluca Actif 141 / 134 40% 3 27.11.2026 -
Iliman N'Diaye Everton Actif 163 / 159 40% 1 26.11.2026 -
Cody Gakpo Liverpool Actif 160 / 161 40% 1 26.11.2026 -
Matko Miljevic Racing Club Actif 125 / 125 40% 1 23.11.2026 -
Gabriel Martinelli Brighton Actif 168 / 159 40% 4 19.11.2026 -
Javi Martínez Eibar Actif 127 / 131 40% 1 14.11.2026 -
Matt O'Riley Brighton Actif 148 / 145 40% 1 13.11.2026 -
Gorka Carrera Real Sociedad Actif 113 / 127 40% 1 10.11.2026 -
Dom Ballard Leyton Orient Actif 110 / 121 40% 2 09.11.2026 -
Georges Mikautadze Villarreal Actif 162 / 154 40% 1 06.11.2026 -
Amadou Onana Aston Villa Actif 158 / 151 40% 1 02.11.2026 -
Tani Oluwaseyi Villarreal Actif 140 / 137 40% 1 30.10.2026 -
Diego Lainez Tigres Actif 117 / 126 40% 1 29.10.2026 -
David Kalokoh Ajax Actif 117 / 123 40% 1 27.10.2026 -
Juan Francisco Rossel Universidad Catolica Actif 96 / 99 40% 1 26.10.2026 -
Will Lankshear Middlesbrough Actif 125 / 121 40% 1 23.10.2026 -
Dylan Cabral Arsenal Actif 87 / 100 40% 1 23.10.2026 -
Jones El-Abdellaoui Celta Actif 116 / 128 40% 1 22.10.2026 -
Fidel Ambríz Monterrey Actif 123 / 137 40% 1 19.10.2026 -
Xavi Simons Tottenham Actif 162 / 155 40% 1 18.10.2026 -
Yeremy Pino Crystal Palace Actif 146 / 143 40% 1 15.10.2026 -
Thiago Salischiker Rucci HNK Vukovar 1991 Actif 85 / 102 40% 1 12.10.2026 -
Youssoufa Moukoko FC Copenhagen Actif 126 / 128 40% 1 09.10.2026 -
Nico O'Reilly Manchester City Actif 158 / 155 40% 1 08.10.2026 -
Ayrton Costa Boca Juniors Actif 130 / 128 40% 1 08.10.2026 -
James Garner Everton Actif 158 / 153 40% 1 05.10.2026 -
Nico Melamed Almería Actif 123 / 125 58% 1 24.08.2026 -
Alejandro Leiva Vissel Kobe Actif 100 / 104 40% 1 18.08.2026 -
Santiago Fernández Talleres Actif 106 / 126 40% 1 02.08.2026 -